Terminal Aerodrome Forecast
Issued by NWS

Home | Current Version | Previous Version | Graphics & Text | Print | Product List | Glossary On
Versions: 1 2 3 4 5 6 7 8 9 10 11 12 13 14 15
000
FTUS43 KIWX 242300
TAFSBN
TAF
KSBN 242338Z 2500/2524 23004KT P6SM BKN025
     FM251200 06005KT 3SM -SN OVC015
     FM251600 07014G20KT 1SM -SN OVC008
     FM252300 04016G23KT 5SM -SN OVC015=

USA.gov is the U.S. government's official web portal to all federal, state and local government web resources and services.